createdAt,value
2018-09-19T00:02:23.343Z,5.73
2018-09-19T00:04:51.455Z,4.07
2018-09-19T00:07:19.561Z,5.30
2018-09-19T00:09:47.645Z,7.67
2018-09-19T00:12:15.797Z,3.60
2018-09-19T00:14:43.878Z,6.10
2018-09-19T00:17:11.967Z,11.47
2018-09-19T00:19:40.066Z,5.30
2018-09-19T00:22:08.181Z,8.77
2018-09-19T00:24:36.336Z,5.17
2018-09-19T00:27:04.446Z,6.37
2018-09-19T00:29:32.546Z,6.60
2018-09-19T00:32:00.643Z,7.65
2018-09-19T00:34:28.746Z,7.30
2018-09-19T00:36:56.865Z,8.13
2018-09-19T00:39:24.993Z,11.80
2018-09-19T00:41:53.133Z,12.07
2018-09-19T00:44:21.200Z,6.30
2018-09-19T00:46:49.298Z,8.57
2018-09-19T00:49:17.380Z,4.83
2018-09-19T00:51:45.496Z,6.70
2018-09-19T00:54:13.559Z,2.93
2018-09-19T00:56:41.712Z,7.37
2018-09-19T00:59:09.771Z,10.30
2018-09-19T01:01:37.862Z,7.43
2018-09-19T01:04:06.007Z,13.47
2018-09-19T01:06:34.094Z,8.80
2018-09-19T01:09:02.178Z,9.87
2018-09-19T01:11:30.284Z,9.23
2018-09-19T01:13:58.402Z,13.72
2018-09-19T01:16:26.524Z,7.97
2018-09-19T01:18:54.620Z,7.57
2018-09-19T01:21:22.754Z,9.67
2018-09-19T01:23:50.876Z,6.73
2018-09-19T01:26:18.986Z,8.73
2018-09-19T01:28:47.071Z,9.57
2018-09-19T01:31:15.144Z,8.37
2018-09-19T01:33:43.262Z,6.30
2018-09-19T01:36:11.348Z,7.17
2018-09-19T01:38:39.450Z,10.97
2018-09-19T01:41:07.806Z,6.80
2018-09-19T01:43:35.907Z,9.23
2018-09-19T01:46:03.987Z,9.50
2018-09-19T01:48:32.132Z,7.50
2018-09-19T01:51:00.239Z,13.23
2018-09-19T01:53:28.328Z,5.17
2018-09-19T01:55:56.404Z,7.93
2018-09-19T01:58:24.594Z,13.48
2018-09-19T02:00:52.694Z,11.27
2018-09-19T02:03:20.778Z,6.93
2018-09-19T02:05:48.874Z,6.73
2018-09-19T02:08:16.954Z,8.37
2018-09-19T02:10:45.032Z,9.30
2018-09-19T02:13:13.102Z,8.93
2018-09-19T02:15:41.214Z,10.70
2018-09-19T02:18:09.294Z,7.73
2018-09-19T02:20:37.400Z,16.50
2018-09-19T02:23:05.587Z,8.20
2018-09-19T02:25:33.678Z,8.37
2018-09-19T02:28:01.976Z,6.20
2018-09-19T02:30:30.078Z,7.87
2018-09-19T02:32:58.300Z,8.93
2018-09-19T02:35:26.417Z,9.73
2018-09-19T02:37:54.506Z,6.13
2018-09-19T02:40:22.678Z,10.77
2018-09-19T02:42:50.833Z,8.73
2018-09-19T02:45:18.949Z,10.83
2018-09-19T02:47:46.999Z,7.10
2018-09-19T02:50:15.074Z,9.53
2018-09-19T02:52:43.226Z,9.70
2018-09-19T02:55:11.314Z,7.07
2018-09-19T02:57:39.395Z,7.13
2018-09-19T03:00:07.475Z,9.10
2018-09-19T03:02:35.620Z,7.43
2018-09-19T03:05:03.712Z,5.40
2018-09-19T03:07:31.829Z,16.67
2018-09-19T03:09:59.986Z,10.40
2018-09-19T03:12:28.074Z,9.10
2018-09-19T03:14:56.166Z,13.27
2018-09-19T03:17:24.334Z,5.67
2018-09-19T03:19:52.451Z,7.63
2018-09-19T03:22:20.573Z,8.40
2018-09-19T03:24:48.655Z,6.93
2018-09-19T03:27:16.749Z,9.35
2018-09-19T03:29:44.867Z,7.70
2018-09-19T03:32:13.325Z,7.73
2018-09-19T03:34:41.528Z,7.90
2018-09-19T03:37:09.665Z,10.63
2018-09-19T03:39:37.743Z,7.53
2018-09-19T03:42:05.826Z,7.83
2018-09-19T03:44:33.912Z,8.50
2018-09-19T03:47:02.031Z,6.63
2018-09-19T03:49:30.233Z,9.73
2018-09-19T03:51:58.320Z,9.67
2018-09-19T03:54:26.406Z,6.77
2018-09-19T03:56:54.503Z,9.73
2018-09-19T03:59:22.696Z,6.10
2018-09-19T04:01:51.152Z,9.20
2018-09-19T04:04:19.274Z,8.80
2018-09-19T04:06:47.356Z,10.43
2018-09-19T04:09:15.519Z,9.07
2018-09-19T04:11:43.615Z,8.43
2018-09-19T04:14:12.414Z,7.83
2018-09-19T04:16:41.098Z,11.00
2018-09-19T04:19:09.226Z,13.35
2018-09-19T04:21:41.574Z,5.67
2018-09-19T04:24:09.696Z,9.00
2018-09-19T04:26:37.777Z,6.20
2018-09-19T04:29:05.862Z,9.90
2018-09-19T04:31:33.967Z,12.27
2018-09-19T04:34:02.062Z,4.90
2018-09-19T04:36:30.152Z,11.70
2018-09-19T04:38:58.264Z,7.60
2018-09-19T04:41:26.375Z,14.20
2018-09-19T04:43:54.441Z,8.07
2018-09-19T04:46:22.520Z,9.80
2018-09-19T04:48:50.675Z,7.83
2018-09-19T04:51:18.949Z,8.37
2018-09-19T04:53:47.094Z,9.93
2018-09-19T04:56:15.195Z,7.07
2018-09-19T04:58:43.473Z,8.00
2018-09-19T05:01:11.806Z,9.53
2018-09-19T05:03:39.907Z,12.98
2018-09-19T05:06:07.999Z,10.70
2018-09-19T05:08:36.145Z,7.90
2018-09-19T05:11:04.206Z,10.63
2018-09-19T05:13:32.300Z,16.10
2018-09-19T05:16:00.362Z,8.23
2018-09-19T05:18:28.440Z,12.37
2018-09-19T05:20:56.548Z,9.77
2018-09-19T05:23:24.637Z,16.03
2018-09-19T05:25:52.786Z,13.37
2018-09-19T05:28:20.980Z,14.67
2018-09-19T05:30:49.155Z,14.93
2018-09-19T05:33:17.228Z,15.13
2018-09-19T05:35:45.316Z,14.63
2018-09-19T05:38:13.494Z,17.23
2018-09-19T05:40:41.607Z,11.60
2018-09-19T05:43:09.747Z,13.70
2018-09-19T05:45:37.855Z,13.57
2018-09-19T05:48:05.974Z,15.27
2018-09-19T05:50:34.059Z,20.07
2018-09-19T05:53:02.128Z,17.57
2018-09-19T05:55:30.246Z,16.43
2018-09-19T05:57:58.417Z,16.12
2018-09-19T06:00:26.541Z,12.97
2018-09-19T06:02:54.632Z,13.30
2018-09-19T06:05:22.732Z,10.53
2018-09-19T06:07:50.852Z,19.33
2018-09-19T06:10:18.935Z,17.43
2018-09-19T06:12:47.075Z,15.50
2018-09-19T06:15:15.192Z,15.77
2018-09-19T06:17:43.317Z,11.17
2018-09-19T06:20:12.051Z,16.60
2018-09-19T06:22:40.123Z,25.10
2018-09-19T06:25:08.350Z,19.63
2018-09-19T06:27:36.480Z,17.83
2018-09-19T06:30:05.129Z,18.83
2018-09-19T06:32:33.197Z,15.23
2018-09-19T06:35:01.308Z,17.57
2018-09-19T06:37:29.402Z,21.73
2018-09-19T06:39:57.645Z,16.53
2018-09-19T06:42:25.719Z,16.12
2018-09-19T06:44:53.848Z,24.40
2018-09-19T06:47:22.946Z,21.62
2018-09-19T06:49:51.042Z,19.90
2018-09-19T06:52:19.192Z,17.77
2018-09-19T06:54:47.298Z,15.23
2018-09-19T06:57:15.381Z,18.60
2018-09-19T06:59:43.583Z,15.93
2018-09-19T07:02:11.685Z,12.23
2018-09-19T07:04:39.821Z,16.03
2018-09-19T07:07:07.996Z,17.70
2018-09-19T07:09:36.296Z,17.93
2018-09-19T07:12:04.426Z,19.77
2018-09-19T07:14:32.526Z,20.80
2018-09-19T07:17:00.648Z,16.43
2018-09-19T07:19:28.734Z,22.07
2018-09-19T07:21:56.862Z,13.97
2018-09-19T07:24:24.988Z,17.10
2018-09-19T07:26:53.062Z,16.27
2018-09-19T07:29:21.235Z,21.77
2018-09-19T07:31:49.353Z,17.03
2018-09-19T07:34:17.461Z,16.23
2018-09-19T07:36:45.594Z,17.32
2018-09-19T07:39:13.730Z,16.27
2018-09-19T07:41:41.826Z,21.10
2018-09-19T07:44:10.663Z,16.90
2018-09-19T07:46:38.864Z,17.67
2018-09-19T07:49:06.882Z,15.55
2018-09-19T07:51:34.985Z,18.07
2018-09-19T07:54:03.089Z,14.45
2018-09-19T07:56:31.332Z,12.68
2018-09-19T07:58:59.534Z,15.83
2018-09-19T08:01:27.614Z,14.33
2018-09-19T08:03:55.816Z,15.45
2018-09-19T08:06:23.902Z,17.57
2018-09-19T08:08:52.050Z,16.97
2018-09-19T08:11:20.098Z,17.60
2018-09-19T08:13:48.191Z,19.98
2018-09-19T08:16:16.316Z,15.18
2018-09-19T08:18:44.413Z,20.75
2018-09-19T08:21:12.510Z,20.30
2018-09-19T08:23:40.595Z,20.45
2018-09-19T08:26:08.707Z,16.00
2018-09-19T08:28:36.890Z,16.67
2018-09-19T08:31:04.958Z,17.37
2018-09-19T08:33:33.258Z,15.75
2018-09-19T08:36:01.340Z,17.98
2018-09-19T08:38:29.475Z,17.23
2018-09-19T08:40:57.637Z,14.20
2018-09-19T08:43:25.777Z,25.05
2018-09-19T08:45:53.859Z,13.78
2018-09-19T08:48:21.947Z,12.63
2018-09-19T08:50:50.084Z,20.17
2018-09-19T08:53:18.148Z,15.15
2018-09-19T08:55:46.239Z,14.28
2018-09-19T08:58:14.324Z,17.40
2018-09-19T09:00:42.427Z,13.25
2018-09-19T09:03:10.542Z,17.35
2018-09-19T09:05:38.631Z,14.87
2018-09-19T09:08:07.000Z,16.80
2018-09-19T09:10:35.095Z,11.48
2018-09-19T09:13:03.181Z,17.25
2018-09-19T09:15:31.320Z,17.23
2018-09-19T09:17:59.442Z,19.12
2018-09-19T09:20:27.598Z,13.75
2018-09-19T09:22:55.690Z,16.02
2018-09-19T09:25:23.805Z,10.53
2018-09-19T09:27:52.034Z,20.95
2018-09-19T09:30:20.296Z,17.50
2018-09-19T09:32:48.418Z,13.55
2018-09-19T09:35:16.506Z,13.15
2018-09-19T09:37:44.717Z,15.23
2018-09-19T09:40:12.879Z,15.35
2018-09-19T09:42:40.910Z,15.83
2018-09-19T09:45:09.024Z,17.90
2018-09-19T09:47:37.118Z,16.17
2018-09-19T09:50:05.515Z,13.65
2018-09-19T09:52:33.636Z,13.43
2018-09-19T09:55:01.731Z,13.18
2018-09-19T09:57:29.866Z,16.70
2018-09-19T09:59:58.031Z,17.23
2018-09-19T10:02:26.127Z,13.28
2018-09-19T10:04:54.216Z,15.13
2018-09-19T10:07:22.313Z,15.10
2018-09-19T10:09:50.440Z,20.90
2018-09-19T10:12:18.523Z,12.90
2018-09-19T10:14:46.714Z,16.93
2018-09-19T10:17:14.814Z,13.43
2018-09-19T10:19:42.980Z,13.68
2018-09-19T10:22:11.175Z,13.18
2018-09-19T10:24:39.263Z,13.72
2018-09-19T10:27:07.451Z,13.72
2018-09-19T10:29:35.700Z,13.43
2018-09-19T10:32:03.696Z,12.75
2018-09-19T10:34:31.976Z,12.28
2018-09-19T10:37:00.075Z,12.13
2018-09-19T10:39:28.256Z,8.75
2018-09-19T10:41:56.365Z,10.30
2018-09-19T10:44:24.535Z,11.40
2018-09-19T10:46:52.648Z,18.20
2018-09-19T10:49:20.743Z,12.85
2018-09-19T10:51:49.709Z,7.60
2018-09-19T10:54:17.785Z,11.08
2018-09-19T10:56:45.969Z,9.75
2018-09-19T10:59:14.046Z,8.83
2018-09-19T11:01:42.120Z,10.85
2018-09-19T11:04:10.200Z,7.25
2018-09-19T11:06:38.346Z,12.70
2018-09-19T11:09:08.313Z,9.80
2018-09-19T11:11:36.455Z,10.90
2018-09-19T11:14:04.564Z,7.47
2018-09-19T11:16:32.662Z,10.75
2018-09-19T11:19:00.735Z,15.08
2018-09-19T11:21:29.147Z,7.85
2018-09-19T11:23:57.258Z,6.85
2018-09-19T11:26:25.352Z,8.45
2018-09-19T11:28:53.442Z,10.50
2018-09-19T11:31:21.590Z,10.35
2018-09-19T11:33:49.745Z,10.43
2018-09-19T11:36:17.847Z,9.58
2018-09-19T11:38:46.050Z,6.30
2018-09-19T11:41:14.143Z,7.47
2018-09-19T11:43:42.222Z,6.30
2018-09-19T11:46:10.306Z,8.23
2018-09-19T11:48:38.427Z,5.55
2018-09-19T11:51:06.735Z,6.95
2018-09-19T11:53:34.832Z,11.03
2018-09-19T11:56:02.917Z,5.83
2018-09-19T11:58:31.219Z,6.92
2018-09-19T12:00:59.630Z,5.58
2018-09-19T12:03:28.389Z,4.97
2018-09-19T12:05:56.489Z,4.83
2018-09-19T12:08:24.628Z,9.35
2018-09-19T12:10:52.723Z,10.98
2018-09-19T12:13:20.894Z,5.42
2018-09-19T12:15:48.962Z,7.90
2018-09-19T12:18:17.125Z,11.05
2018-09-19T12:20:45.219Z,12.23
2018-09-19T12:23:13.314Z,7.90
2018-09-19T12:25:41.407Z,8.53
2018-09-19T12:28:09.734Z,9.13
2018-09-19T12:30:37.831Z,6.92
2018-09-19T12:33:05.938Z,7.62
2018-09-19T12:35:34.055Z,9.55
2018-09-19T12:38:02.150Z,7.67
2018-09-19T12:40:30.326Z,8.43
2018-09-19T12:42:58.546Z,12.50
2018-09-19T12:45:26.649Z,6.08
2018-09-19T12:47:54.731Z,6.90
2018-09-19T12:50:22.822Z,6.20
2018-09-19T12:52:50.946Z,6.85
2018-09-19T12:55:19.097Z,10.18
2018-09-19T12:57:47.435Z,8.93
2018-09-19T13:00:15.555Z,10.35
2018-09-19T13:02:43.669Z,11.00
2018-09-19T13:05:11.775Z,11.73
2018-09-19T13:07:40.066Z,10.10
2018-09-19T13:10:08.753Z,9.90
2018-09-19T13:12:36.930Z,11.38
2018-09-19T13:15:05.036Z,10.68
2018-09-19T13:17:33.177Z,12.10
2018-09-19T13:20:01.311Z,14.83
2018-09-19T13:22:29.405Z,8.68
2018-09-19T13:24:57.509Z,11.48
2018-09-19T13:27:25.693Z,12.00
2018-09-19T13:29:53.779Z,10.80
2018-09-19T13:32:21.930Z,7.53
2018-09-19T13:34:50.102Z,9.83
2018-09-19T13:37:18.557Z,7.72
2018-09-19T13:39:46.641Z,11.78
2018-09-19T13:42:14.767Z,10.93
2018-09-19T13:44:43.451Z,9.58
2018-09-19T13:47:11.587Z,7.25
2018-09-19T13:49:43.364Z,7.70
2018-09-19T13:52:11.439Z,7.12
2018-09-19T13:54:39.551Z,6.03
2018-09-19T13:57:07.662Z,5.00
2018-09-19T13:59:35.741Z,8.43
2018-09-19T14:02:03.846Z,11.00
2018-09-19T14:04:31.998Z,6.58
2018-09-19T14:07:00.154Z,10.20
2018-09-19T14:09:28.243Z,8.13
2018-09-19T14:11:56.493Z,7.00
2018-09-19T14:14:24.608Z,11.10
2018-09-19T14:16:52.782Z,8.98
2018-09-19T14:19:20.913Z,7.17
2018-09-19T14:21:49.024Z,13.30
2018-09-19T14:24:17.133Z,9.10
2018-09-19T14:26:45.198Z,4.95
2018-09-19T14:29:13.410Z,7.55
2018-09-19T14:31:41.590Z,7.60
2018-09-19T14:34:09.763Z,5.53
2018-09-19T14:36:38.316Z,6.45
2018-09-19T14:39:07.597Z,12.20
2018-09-19T14:41:35.719Z,4.85
2018-09-19T14:44:03.819Z,10.00
2018-09-19T14:46:32.135Z,5.65
2018-09-19T14:49:00.269Z,10.32
2018-09-19T14:51:28.380Z,13.50
2018-09-19T14:53:56.495Z,5.90
2018-09-19T14:56:24.619Z,6.58
2018-09-19T14:58:52.827Z,11.25
2018-09-19T15:01:20.898Z,11.80
2018-09-19T15:03:49.003Z,6.37
2018-09-19T15:06:17.121Z,10.55
2018-09-19T15:08:45.301Z,10.63
2018-09-19T15:11:13.450Z,6.70
2018-09-19T15:13:41.623Z,11.28
2018-09-19T15:16:10.202Z,10.95
2018-09-19T15:18:38.585Z,7.30
2018-09-19T15:21:06.739Z,7.17
2018-09-19T15:23:35.064Z,8.95
2018-09-19T15:26:03.256Z,9.23
2018-09-19T15:28:31.706Z,8.48
2018-09-19T15:30:59.815Z,7.03
2018-09-19T15:33:28.053Z,8.55
2018-09-19T15:35:56.167Z,7.83
2018-09-19T15:38:24.340Z,11.60
2018-09-19T15:40:52.543Z,9.18
2018-09-19T15:43:20.639Z,8.63
2018-09-19T15:45:48.815Z,7.55
2018-09-19T15:48:16.959Z,7.50
2018-09-19T15:50:45.873Z,10.30
2018-09-19T15:53:13.991Z,10.15
2018-09-19T15:55:42.127Z,9.28
2018-09-19T15:58:10.214Z,5.58
2018-09-19T16:00:38.448Z,9.45
2018-09-19T16:03:06.554Z,11.20
2018-09-19T16:05:35.009Z,7.80
2018-09-19T16:08:03.144Z,11.55
2018-09-19T16:10:31.265Z,8.28
2018-09-19T16:12:59.400Z,12.25
2018-09-19T16:15:27.515Z,7.90
2018-09-19T16:17:55.635Z,5.28
2018-09-19T16:20:23.728Z,6.08
2018-09-19T16:22:51.847Z,6.00
2018-09-19T16:25:20.095Z,6.47
2018-09-19T16:27:48.199Z,8.23
2018-09-19T16:30:16.322Z,8.93
2018-09-19T16:32:44.435Z,7.50
2018-09-19T16:35:12.565Z,13.30
2018-09-19T16:37:40.780Z,8.75
2018-09-19T16:40:08.916Z,9.15
2018-09-19T16:42:37.053Z,8.10
2018-09-19T16:45:05.502Z,12.18
2018-09-19T16:47:33.611Z,8.83
2018-09-19T16:50:01.718Z,9.63
2018-09-19T16:52:29.926Z,10.25
2018-09-19T16:54:58.206Z,10.00
2018-09-19T16:57:26.377Z,9.23
2018-09-19T16:59:54.512Z,6.00
2018-09-19T17:02:22.721Z,9.30
2018-09-19T17:04:51.120Z,7.08
2018-09-19T17:07:19.220Z,7.92
2018-09-19T17:09:47.314Z,10.72
2018-09-19T17:12:15.565Z,6.03
2018-09-19T17:14:43.902Z,16.00
2018-09-19T17:17:12.010Z,10.32
2018-09-19T17:19:40.134Z,9.25
2018-09-19T17:22:08.652Z,17.07
2018-09-19T17:24:36.796Z,10.03
2018-09-19T17:27:04.887Z,9.00
2018-09-19T17:29:33.002Z,9.20
2018-09-19T17:32:01.151Z,8.35
2018-09-19T17:34:29.288Z,7.67
2018-09-19T17:36:57.512Z,9.70
2018-09-19T17:39:25.677Z,5.47
2018-09-19T17:41:53.949Z,7.70
2018-09-19T17:44:22.052Z,5.65
2018-09-19T17:46:50.219Z,9.13
2018-09-19T17:49:18.343Z,11.38
2018-09-19T17:51:46.492Z,7.17
2018-09-19T17:54:14.596Z,7.70
2018-09-19T17:56:42.795Z,9.70
2018-09-19T17:59:10.924Z,11.25
2018-09-19T18:01:39.101Z,9.35
2018-09-19T18:04:07.658Z,13.40
2018-09-19T18:06:36.487Z,8.45
2018-09-19T18:09:05.832Z,12.78
2018-09-19T18:11:34.092Z,6.42
2018-09-19T18:14:02.232Z,10.82
2018-09-19T18:16:30.316Z,10.00
2018-09-19T18:18:58.525Z,5.87
2018-09-19T18:21:26.643Z,8.93
2018-09-19T18:23:54.935Z,8.08
2018-09-19T18:26:23.331Z,8.58
2018-09-19T18:28:51.495Z,7.50
2018-09-19T18:31:19.615Z,6.10
2018-09-19T18:33:48.331Z,7.10
2018-09-19T18:36:16.415Z,8.98
2018-09-19T18:38:44.602Z,7.62
2018-09-19T18:41:12.799Z,3.98
2018-09-19T18:43:40.998Z,6.63
2018-09-19T18:46:09.178Z,6.92
2018-09-19T18:48:37.275Z,8.63
2018-09-19T18:51:05.357Z,5.90
2018-09-19T18:53:33.463Z,6.87
2018-09-19T18:56:01.576Z,6.30
2018-09-19T18:58:29.671Z,3.62
2018-09-19T19:00:57.887Z,8.00
2018-09-19T19:03:26.015Z,7.28
2018-09-19T19:05:54.214Z,9.33
2018-09-19T19:08:22.503Z,6.15
2018-09-19T19:10:50.705Z,3.87
2018-09-19T19:13:18.908Z,8.68
2018-09-19T19:15:47.019Z,7.70
2018-09-19T19:18:15.156Z,9.18
2018-09-19T19:20:43.335Z,5.08
2018-09-19T19:23:11.439Z,5.15
2018-09-19T19:25:39.570Z,7.90
2018-09-19T19:28:07.782Z,6.35
2018-09-19T19:30:36.098Z,5.90
2018-09-19T19:33:04.117Z,4.10
2018-09-19T19:35:32.227Z,8.83
2018-09-19T19:38:00.374Z,7.60
2018-09-19T19:40:28.484Z,6.35
2018-09-19T19:42:56.697Z,10.45
2018-09-19T19:45:24.874Z,6.72
2018-09-19T19:47:53.021Z,8.33
2018-09-19T19:50:21.118Z,6.45
2018-09-19T19:52:49.303Z,8.98
2018-09-19T19:55:17.379Z,4.30
2018-09-19T19:57:45.532Z,8.95
2018-09-19T20:00:13.708Z,5.40
2018-09-19T20:02:41.827Z,8.75
2018-09-19T20:05:09.958Z,6.85
2018-09-19T20:07:38.059Z,7.58
2018-09-19T20:10:06.184Z,6.28
2018-09-19T20:12:34.486Z,7.22
2018-09-19T20:15:02.608Z,6.53
2018-09-19T20:17:31.451Z,5.00
2018-09-19T20:19:59.659Z,11.53
2018-09-19T20:22:27.873Z,4.97
2018-09-19T20:24:56.062Z,4.80
2018-09-19T20:27:24.141Z,6.67
2018-09-19T20:29:52.247Z,11.38
2018-09-19T20:32:20.333Z,6.65
2018-09-19T20:34:48.559Z,7.25
2018-09-19T20:37:16.678Z,6.65
2018-09-19T20:39:45.035Z,4.60
2018-09-19T20:42:13.098Z,6.22
2018-09-19T20:44:41.232Z,10.45
2018-09-19T20:47:09.331Z,4.75
2018-09-19T20:49:37.419Z,6.58
2018-09-19T20:52:05.578Z,9.33
2018-09-19T20:54:33.666Z,4.70
2018-09-19T20:57:01.767Z,6.80
2018-09-19T20:59:30.044Z,4.33
2018-09-19T21:01:58.194Z,8.05
2018-09-19T21:04:26.398Z,7.30
2018-09-19T21:06:54.512Z,7.05
2018-09-19T21:09:22.599Z,9.43
2018-09-19T21:11:50.730Z,7.00
2018-09-19T21:14:18.896Z,4.22
2018-09-19T21:16:47.004Z,6.80
2018-09-19T21:19:15.075Z,10.75
2018-09-19T21:21:43.457Z,10.67
2018-09-19T21:24:11.586Z,9.28
2018-09-19T21:26:39.705Z,9.10
2018-09-19T21:29:09.845Z,5.30
2018-09-19T21:31:38.103Z,6.62
2018-09-19T21:34:06.714Z,12.07
2018-09-19T21:36:34.977Z,9.80
2018-09-19T21:39:04.034Z,5.50
2018-09-19T21:41:32.132Z,6.50
2018-09-19T21:44:00.241Z,5.58
2018-09-19T21:46:28.428Z,12.58
2018-09-19T21:48:56.641Z,7.37
2018-09-19T21:51:25.290Z,5.90
2018-09-19T21:53:53.642Z,7.20
2018-09-19T21:56:22.195Z,7.60
2018-09-19T21:58:50.299Z,8.80
2018-09-19T22:01:23.851Z,8.40
2018-09-19T22:03:52.623Z,6.22
2018-09-19T22:06:21.521Z,7.78
2018-09-19T22:08:49.722Z,7.45
2018-09-19T22:11:17.843Z,6.62
2018-09-19T22:13:45.967Z,7.53
2018-09-19T22:16:14.048Z,12.60
2018-09-19T22:18:42.139Z,10.50
2018-09-19T22:21:10.294Z,7.62
2018-09-19T22:23:38.454Z,6.90
2018-09-19T22:26:06.618Z,11.03
2018-09-19T22:28:34.720Z,8.73
2018-09-19T22:31:03.143Z,11.97
2018-09-19T22:33:31.270Z,7.03
2018-09-19T22:35:59.438Z,10.23
2018-09-19T22:38:27.499Z,8.68
2018-09-19T22:40:55.567Z,7.22
2018-09-19T22:43:23.654Z,12.82
2018-09-19T22:45:51.767Z,10.65
2018-09-19T22:48:19.880Z,8.33
2018-09-19T22:50:47.975Z,11.30
2018-09-19T22:53:16.120Z,10.88
2018-09-19T22:55:44.202Z,8.48
2018-09-19T22:58:12.327Z,9.17
2018-09-19T23:00:40.404Z,6.87
2018-09-19T23:03:08.584Z,6.23
2018-09-19T23:05:36.694Z,6.93
2018-09-19T23:08:04.858Z,8.48
2018-09-19T23:10:32.973Z,10.30
2018-09-19T23:13:01.115Z,6.83
2018-09-19T23:15:29.342Z,12.20
2018-09-19T23:17:57.392Z,7.58
2018-09-19T23:20:25.529Z,6.78
2018-09-19T23:22:53.642Z,11.13
2018-09-19T23:25:21.712Z,8.03
2018-09-19T23:27:49.799Z,10.38
2018-09-19T23:30:17.913Z,7.73
2018-09-19T23:32:45.995Z,11.50
2018-09-19T23:35:14.106Z,9.93
2018-09-19T23:37:42.194Z,11.67
2018-09-19T23:40:10.280Z,10.35
2018-09-19T23:42:38.367Z,8.20
2018-09-19T23:45:06.560Z,7.75
2018-09-19T23:47:34.668Z,10.60
2018-09-19T23:50:02.852Z,6.97
2018-09-19T23:52:31.048Z,13.08
2018-09-19T23:54:59.133Z,8.50
2018-09-19T23:57:27.242Z,10.13
2018-09-19T23:59:55.333Z,9.47
